Airfield :
LOGIN :

Register | Disclaimer

   EN    FR    IT 

 










Legend :    VFR   Marginal VFR   IFR   Intensive IFR   Very Intensive IFR
Visi :
Ceiling :
>= 8 km
>= 3000ft
5 to 8 km
1000 to 3000 ft
1500m to 5 km
500 to 1000 ft
800 to 1500m
200 to 500 ft
< 800m
< 200 ft
Symbols :   Thunderstorms  Fog  Heavy snow  Heavy precipitations  Wind > 20 kt
SIGMETs :     Misc.  Thunderstorms  Icing  Turbulence  Mountain Waves  Volcanic Ashes






- Airport Elevation : 39 ft
- IATA code : ANR


EBAW - Anvers / Antwerpen Deurne

CURRENT METAR :
  • 270820Z 16010KT 9000 -RA SCT009 BKN014 03/02 Q0999 BECMG BKN009

EXPIRED METARs :
  • 270750Z 16008KT 9000 -RA FEW018 BKN035 03/02 Q1000 BECMG BKN012
  • 270720Z 15008KT 9999 FEW024 03/01 Q1000 BECMG BKN012
  • 270650Z 15006KT 9999 -RA BKN045 03/01 Q1001 BECMG BKN012 TEMPO 3000 RADZ BKN008
  • 270620Z 17004KT 140V200 9999 -RA FEW033 03/01 Q1002 NOSIG
  • 270550Z 16006KT 9999 FEW033 03/01 Q1002 NOSIG
  • 270520Z 18006KT 9999 SCT033 03/01 Q1003 NOSIG

TAF TAF EBAW
Valid from the 27 at 06:00 until the 27 at 15:00 UTC


270510Z 2706/2715 18008KT 8000 -RA SCT008 BKN012
BECMG 2706/2709 4000 -RASN BKN008
TEMPO 2708/2715 2000 SNRA BKN003
PROB40
TEMPO 2709/2715 0500 SN VV001



MET'MAP, your aeronautical weather chart ! - Copyright ORBIFLY December 2007 - Disclaimer

ORBIFLY MET'MAP TEAM :

Programming & Development : Alexandra Zaïnal
Concept & original design : Baudouin d'Aumeries
Assistance for programming : Marc-Olivier Méhu
Technical & hardware support : Manuel Goepfert

Contact : metmap@orbifly.com




SOURCES & CREDITS :

   NOAA